Date,TemperatureHighF,TemperatureAvgF,TemperatureLowF,DewpointHighF,DewpointAvgF,DewpointLowF,HumidityHigh,HumidityAvg,HumidityLow,PressureMaxIn,PressureMinIn,WindSpeedMaxMPH,WindSpeedAvgMPH,GustSpeedMaxMPH,PrecipitationSumIn
2013-4-25,34.7,34.1,33.4,33.9,33.2,32.6,98,97,96,28.00,28.00,3,1,5,3.21
2013-4-26,34.4,32.1,30.7,33.1,31.0,29.5,97,96,94,28.00,28.00,4,1,7,0.00
2013-4-27,36.1,32.0,29.5,31.5,29.8,27.7,97,91,80,28.00,28.00,4,1,7,0.25
2013-4-28,32.7,29.8,25.1,29.8,20.1,11.1,96,69,45,28.00,28.00,15,3,23,0.02
2013-4-29,37.9,30.0,21.6,21.9,13.0,8.2,79,51,32,28.00,28.00,9,2,13,0.10
2013-4-30,34.7,31.9,27.0,33.1,29.4,21.9,95,90,80,28.00,28.00,9,4,25,0.01
2013-5-1,42.0,35.6,32.5,39.8,34.5,31.7,98,96,92,28.00,28.00,18,6,33,0.00
2013-5-2,47.2,42.4,39.7,43.5,41.0,38.9,97,95,87,28.00,28.00,17,8,44,0.00
2013-5-3,45.0,42.8,41.1,42.5,41.1,39.7,97,94,90,28.00,28.00,10,5,31,0.00
2013-5-4,48.5,44.2,42.0,46.6,43.5,41.2,99,97,93,28.00,28.00,31,10,35,0.00
2013-5-5,46.4,43.7,41.0,43.3,41.7,39.7,98,93,86,28.00,28.00,27,4,27,0.00
2013-5-6,48.1,42.5,38.5,43.1,39.5,36.3,98,89,76,30.21,28.00,10,2,13,0.01
2013-5-7,52.1,42.2,37.1,38.7,35.4,31.5,94,78,51,30.22,30.13,4,2,6,0.00
2013-5-8,60.6,48.9,39.4,36.7,32.0,28.3,70,54,33,30.22,30.11,4,1,7,0.00
2013-5-9,63.7,52.8,42.0,35.6,31.7,29.8,66,46,28,30.30,30.22,5,1,11,0.00
2013-5-10,65.4,54.0,44.7,37.2,33.4,30.2,59,46,32,30.24,29.99,7,1,8,0.00
2013-5-11,48.6,45.7,43.2,45.5,40.7,33.6,97,84,58,29.99,29.66,4,1,6,0.47
2013-5-12,49.5,46.1,42.2,47.9,45.1,41.7,98,96,93,29.66,29.55,6,1,12,0.26
2013-5-13,49.4,45.3,43.7,46.3,44.2,43.2,99,96,87,29.60,29.53,9,4,21,0.28
2013-5-14,48.9,46.0,43.5,44.3,42.9,41.8,97,89,82,29.75,29.59,13,5,30,0.00
2013-5-15,52.4,46.5,42.4,43.6,38.4,33.5,95,75,51,29.94,29.74,15,4,25,0.00
2013-5-16,50.9,46.6,40.3,42.4,40.0,36.0,89,78,68,29.96,29.82,9,3,17,0.00
2013-5-17,50.9,46.0,43.8,46.2,44.1,42.1,97,93,84,29.82,29.68,7,3,18,0.07
2013-5-18,48.1,44.3,39.6,45.0,40.6,32.6,98,87,66,30.11,29.68,16,4,26,0.01
2013-5-19,47.7,41.4,36.2,36.3,33.6,30.2,89,74,55,30.48,30.11,9,2,23,0.00
2013-5-20,48.7,42.2,35.3,34.1,25.4,17.8,92,56,30,30.54,30.47,12,3,18,0.00
2013-5-21,57.8,49.0,38.0,27.1,24.0,20.6,53,38,26,30.48,30.14,9,2,15,0.00
2013-5-22,55.9,50.1,44.0,37.1,32.8,25.4,63,51,44,30.14,30.05,13,3,18,0.00
2013-5-23,65.5,54.6,41.1,38.7,34.3,32.7,74,49,30,30.08,29.92,6,1,8,0.00
2013-5-24,67.6,59.1,52.4,49.0,39.7,33.3,70,50,30,29.99,29.93,8,2,14,0.00
2013-5-25,62.3,53.8,47.4,49.6,44.3,41.2,88,71,56,30.01,29.97,5,1,11,0.00
2013-5-26,66.0,55.0,44.1,48.3,45.3,41.4,90,71,52,29.98,29.84,4,1,11,0.00
2013-5-27,74.2,61.3,49.5,49.5,44.5,39.7,79,56,35,29.87,29.60,4,1,7,0.00
2013-5-28,72.8,62.4,51.7,48.7,44.2,40.8,70,52,36,29.63,29.55,11,1,13,0.00
2013-5-29,73.6,61.6,51.2,50.9,47.0,42.0,91,61,38,29.85,29.60,9,2,14,0.00
2013-5-30,62.4,54.6,49.7,52.0,49.8,47.4,97,84,66,30.01,29.85,4,1,7,0.01
2013-5-31,52.7,48.6,44.8,49.0,47.1,43.5,97,95,86,30.17,30.01,13,1,16,0.31
2013-6-1,50.7,46.3,43.5,46.0,43.9,42.0,96,91,83,30.28,30.17,6,2,16,0.01
2013-6-2,56.1,49.1,44.2,47.1,43.8,41.5,97,83,60,30.31,30.18,5,1,11,0.01
2013-6-3,56.8,49.1,42.1,47.2,44.2,40.2,97,84,62,30.18,29.95,10,3,17,0.04
2013-6-4,56.2,50.1,46.6,50.5,45.3,39.8,98,84,63,29.95,29.87,12,4,18,0.00
2013-6-5,52.4,48.3,46.0,44.8,43.5,41.7,92,83,74,30.09,29.92,14,3,18,0.00
2013-6-6,60.0,51.4,44.6,46.1,43.3,39.1,95,76,47,30.09,29.72,6,2,12,0.00
2013-6-7,58.7,51.9,46.4,49.3,46.2,43.4,96,82,63,29.91,29.73,9,2,13,0.03
2013-6-8,64.4,54.1,45.5,48.7,45.5,42.0,92,74,51,30.08,29.91,6,2,15,0.07
2013-6-9,70.0,58.3,48.6,52.0,49.1,47.3,96,74,49,30.15,30.08,5,2,8,0.01
2013-6-10,75.9,63.2,51.1,50.3,47.9,44.8,83,59,40,30.13,29.96,6,1,10,0.00
2013-6-11,76.4,67.0,56.0,49.3,45.9,43.6,65,48,34,29.99,29.87,6,1,8,0.00
2013-6-12,69.8,63.0,56.2,51.9,47.1,44.0,68,56,43,29.98,29.92,9,2,17,0.00
2013-6-13,59.6,55.3,51.0,50.6,47.9,45.6,87,76,64,30.13,29.98,7,2,17,0.00
2013-6-14,71.8,58.9,49.5,48.0,46.2,43.2,89,65,40,30.18,30.08,5,1,8,0.00
2013-6-15,81.6,70.4,57.8,49.8,44.7,41.5,57,41,27,30.16,30.03,5,1,7,0.00
2013-6-16,83.0,71.8,60.9,51.8,46.7,43.0,54,42,27,30.10,29.97,3,1,12,0.00
2013-6-17,82.7,68.2,59.4,53.8,45.1,33.6,80,46,23,29.98,29.78,26,4,28,0.01
2013-6-18,66.3,57.7,50.1,53.2,47.9,35.4,92,72,39,30.00,29.95,8,2,16,0.09
2013-6-19,78.7,66.7,56.1,57.0,51.6,48.0,90,62,35,30.00,29.89,5,2,9,0.06
2013-6-20,71.1,62.7,57.0,57.1,54.6,50.8,92,76,58,30.00,29.95,4,1,8,0.00
2013-6-21,72.7,64.6,58.2,56.0,54.1,51.1,86,69,55,30.03,29.93,4,1,10,0.00
2013-6-22,60.9,57.4,54.4,54.7,53.5,50.9,94,87,72,29.99,29.88,6,1,14,0.00
2013-6-23,70.0,60.5,53.5,56.4,53.1,50.6,96,78,55,29.88,29.62,4,1,7,0.00
2013-6-24,84.0,65.6,54.7,59.8,52.4,48.4,96,66,31,29.63,29.39,12,2,18,0.22
2013-6-25,72.1,60.9,57.8,60.2,58.1,56.2,97,91,64,29.56,29.50,17,1,17,0.02
2013-6-26,61.1,56.3,54.2,58.1,54.8,53.1,97,95,89,29.93,29.54,8,2,14,0.31
2013-6-27,55.8,53.8,53.0,54.1,53.0,52.2,98,97,94,30.15,29.93,3,0,8,0.66
2013-6-28,63.0,55.7,52.5,55.3,52.8,49.8,99,90,68,30.18,30.02,2,0,5,0.00
2013-6-29,62.8,56.5,51.5,53.5,51.3,49.0,92,83,67,30.06,29.99,3,1,9,0.00
2013-6-30,75.6,62.5,52.5,54.9,51.2,47.2,90,69,38,30.08,29.93,4,1,7,0.00
2013-7-1,59.6,56.3,54.2,54.7,52.4,48.7,97,87,68,29.94,29.86,8,2,20,0.21
2013-7-2,57.7,54.4,52.8,52.4,50.7,49.4,94,87,79,30.02,29.88,13,5,26,0.00
2013-7-3,55.7,53.3,51.1,51.7,50.6,49.4,96,91,85,30.09,30.01,9,3,20,0.01
2013-7-4,58.7,54.1,50.5,51.8,49.8,47.8,96,86,74,30.16,30.09,7,2,15,0.01
2013-7-5,59.6,55.0,51.4,52.0,50.3,48.0,90,84,75,30.19,30.15,4,1,12,0.00
2013-7-6,59.7,55.2,51.8,51.9,49.9,48.5,93,83,71,30.15,30.04,7,1,10,0.00
2013-7-7,57.4,55.1,52.4,51.6,50.2,48.7,96,84,75,30.04,29.84,11,2,16,0.06
2013-7-8,60.0,54.3,52.2,56.0,51.7,46.5,98,91,80,29.92,29.78,11,4,25,0.09
2013-7-9,54.6,52.2,50.1,49.5,48.4,46.4,94,87,79,30.02,29.92,9,3,20,0.00
2013-7-10,63.9,54.7,46.9,50.3,48.3,45.6,96,80,56,29.99,29.84,6,2,11,0.00
2013-7-11,59.5,54.1,48.5,51.9,49.4,46.1,93,84,74,29.91,29.82,5,1,6,0.00
2013-7-12,61.0,55.7,50.7,53.5,51.6,48.8,94,86,76,30.01,29.91,9,2,13,0.00
2013-7-13,65.0,57.6,53.6,54.0,51.5,45.2,94,81,66,30.21,30.01,5,1,12,0.01
2013-7-14,63.9,57.7,48.4,52.2,48.6,44.4,87,72,59,30.26,30.18,7,2,12,0.00
2013-7-15,64.7,57.6,51.4,54.3,50.7,47.4,87,78,68,30.25,30.14,4,1,8,0.00
2013-7-16,71.5,61.7,52.2,56.9,53.6,50.0,92,76,60,30.17,29.99,5,1,9,0.00
2013-7-17,74.0,64.8,56.8,57.6,55.0,52.6,88,72,54,30.01,29.91,6,1,9,0.00
2013-7-18,65.2,61.2,57.1,56.3,54.6,52.6,86,79,72,30.19,29.96,6,2,14,0.00
2013-7-19,59.5,57.6,55.9,55.3,54.1,52.9,95,88,84,30.19,30.07,3,1,9,0.00
2013-7-20,58.3,56.0,54.5,55.3,54.1,52.5,97,93,88,30.07,29.87,5,1,18,0.00
2013-7-21,58.6,55.3,52.6,56.5,54.2,52.0,98,96,90,29.94,29.86,7,2,12,0.19
2013-7-22,66.2,57.9,51.4,59.0,54.7,50.9,98,90,71,30.06,29.94,6,1,11,0.00
2013-7-23,76.1,64.6,55.1,57.8,52.9,47.8,94,69,37,30.06,29.97,7,2,13,0.00
2013-7-24,58.5,56.2,54.1,56.2,54.0,52.1,97,92,86,30.05,30.03,3,1,11,0.07
2013-7-25,61.6,56.4,52.0,56.3,54.0,51.5,98,92,82,30.13,30.04,9,2,16,0.00
2013-7-26,61.1,56.7,54.7,55.8,53.8,52.0,96,90,81,30.27,30.13,5,1,11,0.05
2013-7-27,67.6,59.2,54.5,56.4,54.2,52.0,96,84,66,30.28,30.17,4,1,8,0.00
2013-7-28,82.3,67.0,54.5,57.5,54.7,51.6,94,68,41,30.22,30.07,3,1,7,0.00
2013-7-29,78.7,68.2,58.7,57.2,54.9,52.8,85,64,44,30.10,30.01,8,1,10,0.00
2013-7-30,75.8,68.1,58.8,58.5,56.0,53.1,86,66,53,30.13,30.08,5,1,10,0.00
2013-7-31,72.1,62.8,56.6,58.8,55.2,53.1,88,77,63,30.16,30.02,5,1,9,0.00
2013-8-1,72.0,64.5,56.2,58.7,56.0,53.6,91,74,61,30.05,29.94,5,2,9,0.00
2013-8-2,70.1,63.1,55.8,57.9,55.4,52.7,91,76,63,30.04,29.98,5,2,10,0.00
2013-8-3,65.2,61.4,56.6,57.7,55.7,53.1,89,82,74,30.11,30.04,8,2,12,0.00
2013-8-4,60.0,56.2,53.8,56.0,54.4,52.2,98,94,87,30.08,30.04,10,2,15,0.17
2013-8-5,61.6,57.5,53.4,59.0,56.0,52.8,98,95,89,30.06,30.01,3,1,7,0.16
2013-8-6,71.1,61.7,53.9,58.2,55.8,52.8,98,82,62,30.07,29.95,6,2,11,0.00
2013-8-7,73.2,61.7,54.4,57.5,54.6,51.9,92,78,58,29.98,29.89,3,1,6,0.00
2013-8-8,60.1,57.8,55.9,56.9,55.2,52.5,98,91,78,30.00,29.89,6,1,9,0.38
2013-8-9,63.8,58.8,55.8,58.0,54.4,51.9,98,86,66,30.06,30.00,9,2,16,0.00
2013-8-10,65.9,58.9,51.4,53.7,51.8,49.7,95,78,61,30.07,30.00,4,2,9,0.00
2013-8-11,71.5,61.8,51.6,57.0,54.0,49.9,94,76,57,30.05,29.95,5,1,12,0.00
2013-8-12,75.5,64.4,55.3,57.2,54.9,52.7,92,73,51,29.99,29.93,3,1,7,0.00
2013-8-13,69.2,61.8,55.9,57.8,55.2,52.8,91,79,65,29.99,29.94,6,2,9,0.00
2013-8-14,72.1,62.8,57.8,58.8,56.3,54.6,91,80,59,29.98,29.75,5,2,9,0.00
2013-8-15,70.3,61.1,55.6,57.5,55.6,53.4,96,83,63,29.81,29.74,7,1,15,0.00
2013-8-16,58.1,56.6,56.1,56.8,56.0,55.5,98,98,96,29.81,29.77,12,2,19,0.19
2013-8-17,63.3,56.9,53.7,57.7,54.9,53.0,98,93,76,29.77,29.59,7,1,10,0.12
2013-8-18,58.2,54.3,52.8,53.9,52.3,50.7,98,93,82,29.70,29.58,10,2,15,0.19
2013-8-19,58.2,55.0,51.6,52.3,51.1,49.5,93,87,79,29.89,29.69,5,1,12,0.00
2013-8-20,58.9,56.0,53.4,53.1,52.1,51.4,94,87,77,30.05,29.89,8,2,15,0.00
2013-8-21,57.6,55.2,53.9,53.1,51.9,50.2,92,89,84,30.04,29.83,8,2,14,0.00
2013-8-22,57.8,54.5,52.3,54.0,51.9,51.0,96,91,83,29.84,29.81,7,2,15,0.00
2013-8-23,57.3,54.5,52.8,53.1,51.9,51.0,95,91,82,29.81,29.58,7,2,16,0.01
2013-8-24,53.5,52.4,51.1,52.4,51.8,50.8,99,98,95,29.67,29.55,10,2,17,0.62
2013-8-25,59.3,54.4,51.0,56.7,53.5,50.7,99,97,91,29.76,29.67,8,1,16,0.11
2013-8-26,58.5,55.0,52.3,57.7,54.4,51.8,99,98,96,29.78,29.74,4,1,7,0.12
2013-8-27,68.8,57.9,51.1,57.2,52.7,50.3,98,84,55,29.84,29.72,6,1,13,0.01
2013-8-28,60.6,55.8,52.8,54.8,52.9,51.4,95,90,80,29.87,29.84,2,0,4,0.00
2013-8-29,67.7,57.0,49.5,54.2,51.0,48.5,98,82,57,29.85,29.75,2,1,5,0.00
2013-8-30,60.6,55.9,53.3,54.2,51.1,47.7,98,84,73,30.00,29.78,7,1,14,0.03
2013-8-31,55.7,54.4,53.4,54.9,53.9,52.8,99,98,96,30.00,29.86,11,2,16,0.07
2013-9-1,55.7,54.7,53.7,55.2,54.3,53.4,99,99,98,29.86,29.76,10,2,19,0.00
2013-9-2,61.7,56.2,53.7,55.9,53.7,51.9,99,92,78,29.96,29.86,5,1,10,0.00
2013-9-3,61.2,56.1,52.2,54.3,52.7,51.0,96,89,75,29.97,29.82,13,2,19,0.01
2013-9-4,58.2,55.5,53.0,55.7,54.0,52.2,98,95,90,29.89,29.79,15,5,29,0.05
2013-9-5,57.6,55.2,53.1,54.1,53.1,51.8,97,92,87,30.18,29.89,10,2,18,0.00
2013-9-6,57.8,53.7,51.5,56.1,52.9,51.0,99,97,94,30.18,29.95,12,2,18,0.07
2013-9-7,58.7,56.9,55.0,57.0,55.9,53.6,98,97,93,29.96,29.61,13,4,25,0.00
2013-9-8,59.0,55.6,52.2,58.5,52.3,49.0,99,89,82,30.07,29.54,15,5,31,0.10
2013-9-9,55.3,52.2,49.3,50.5,48.8,47.4,95,88,81,30.12,30.07,5,1,8,0.00
2013-9-10,55.3,51.6,48.9,51.2,49.2,47.2,96,92,86,30.10,30.03,3,1,5,0.00
2013-9-11,59.7,54.4,49.1,57.1,53.3,48.6,99,96,90,30.04,29.88,16,4,28,0.26
2013-9-12,60.8,54.6,51.2,55.5,53.1,50.4,99,95,82,30.06,29.94,4,1,5,0.02
2013-9-13,58.0,52.9,49.5,52.3,50.4,48.7,98,91,79,30.09,29.97,3,1,5,0.00
2013-9-14,58.8,53.1,49.4,52.4,49.7,47.5,95,89,77,29.97,29.80,2,0,4,0.00
2013-9-15,71.4,58.2,48.4,53.5,49.0,43.5,93,73,51,29.80,29.53,7,1,11,0.00
2013-9-16,61.3,52.4,49.7,52.1,49.9,47.3,98,91,64,29.63,29.54,6,2,13,0.30
2013-9-17,50.1,48.9,47.9,49.2,47.9,46.8,98,96,94,29.73,29.62,9,3,14,0.06
2013-9-18,48.7,47.2,45.4,48.1,46.1,44.2,98,96,93,29.78,29.72,5,1,12,0.02
2013-9-19,52.0,48.0,45.3,50.6,46.7,44.7,98,95,83,29.72,29.20,5,0,10,0.23
2013-9-20,51.9,48.3,46.4,51.4,48.0,45.9,99,99,98,29.21,29.09,8,1,20,1.75
2013-9-21,51.9,48.2,44.7,51.1,45.5,43.9,98,90,82,29.23,29.04,10,3,31,0.01
2013-9-22,48.4,46.1,44.2,47.3,45.5,43.9,99,98,94,29.11,28.94,3,0,12,0.18
2013-9-23,46.7,46.7,46.7,46.4,46.4,46.4,99,99,99,29.30,29.30,0,0,2,0.05
2013-10-16,67.1,66.6,66.0,27.0,26.5,26.1,22,22,22,26.20,26.20,0,0,0,0.00
2013-10-22,72.2,71.5,71.2,41.4,33.6,29.3,34,25,21,0.00,40.00,4,2,10,0.00